Time;durP1;ratioP1;P1;durP2;ratioP2;P2;SDS_P1;SDS_P2;PMS_P1;PMS_P2;Temp;Humidity;BMP_temperature;BMP_pressure;BME280_temperature;BME280_humidity;BME280_pressure;Samples;Min_cycle;Max_cycle;Signal;HPM_P1;HPM_P2
2023/08/27 00:00:52;;;;;;;6.30;4.10;;;13.30;99.90;;;;;;5050830;28;20205;-86
2023/08/27 00:03:18;;;;;;;6.67;4.90;;;13.30;99.90;;;;;;5050872;28;20268;-85
2023/08/27 00:05:44;;;;;;;6.03;4.33;;;13.20;99.90;;;;;;5068966;28;20245;-85
2023/08/27 00:08:13;;;;;;;6.10;4.20;;;13.20;99.90;;;;;;5050509;28;20654;-84
2023/08/27 00:10:39;;;;;;;5.90;3.83;;;13.20;99.90;;;;;;5050683;28;20217;-84
2023/08/27 00:13:05;;;;;;;4.23;3.33;;;13.10;99.90;;;;;;5033115;28;20233;-86
2023/08/27 00:15:31;;;;;;;6.50;4.40;;;13.10;99.90;;;;;;5033668;28;20818;-86
2023/08/27 00:17:56;;;;;;;5.17;2.90;;;13.00;99.90;;;;;;5034588;28;20185;-86
2023/08/27 00:20:22;;;;;;;3.90;3.50;;;12.80;99.90;;;;;;5050345;28;20659;-88
2023/08/27 00:22:48;;;;;;;5.20;3.40;;;12.70;99.90;;;;;;5050482;28;20228;-85
2023/08/27 00:25:14;;;;;;;5.97;4.13;;;12.60;99.90;;;;;;5050536;28;20217;-85
2023/08/27 00:27:40;;;;;;;2.93;2.73;;;12.60;99.90;;;;;;5050148;28;20197;-84
2023/08/27 00:30:06;;;;;;;6.63;3.27;;;12.60;99.90;;;;;;5050725;28;20232;-86
2023/08/27 00:32:33;;;;;;;6.47;3.90;;;12.60;99.90;;;;;;5051017;28;20275;-87
2023/08/27 00:35:00;;;;;;;4.27;3.30;;;12.60;99.90;;;;;;5050571;28;20209;-84
2023/08/27 00:37:26;;;;;;;5.03;3.70;;;12.60;99.90;;;;;;5050341;28;20290;-85
2023/08/27 00:39:52;;;;;;;5.57;3.00;;;12.50;99.90;;;;;;5033269;28;20560;-84
2023/08/27 00:42:18;;;;;;;5.43;3.20;;;12.60;99.90;;;;;;5050169;28;20772;-85
2023/08/27 00:44:44;;;;;;;5.50;3.70;;;12.60;99.90;;;;;;5034561;28;20212;-87
2023/08/27 00:47:12;;;;;;;5.47;3.93;;;12.80;99.90;;;;;;5033666;28;20255;-84
2023/08/27 00:49:39;;;;;;;4.33;3.50;;;12.90;99.90;;;;;;5050213;28;20205;-84
2023/08/27 00:52:07;;;;;;;5.37;3.50;;;12.90;99.90;;;;;;5050096;28;20220;-87
2023/08/27 00:54:34;;;;;;;8.17;4.20;;;13.00;99.90;;;;;;5050224;28;20589;-87
2023/08/27 00:57:05;;;;;;;4.10;3.00;;;13.00;99.90;;;;;;5033852;28;20177;-84
2023/08/27 00:59:32;;;;;;;4.10;3.70;;;12.90;99.90;;;;;;5068242;28;20204;-86
2023/08/27 01:01:57;;;;;;;4.80;3.30;;;12.90;99.90;;;;;;5067643;28;20209;-87
2023/08/27 01:04:23;;;;;;;8.83;3.93;;;12.90;99.90;;;;;;5050155;28;20246;-87
2023/08/27 01:06:50;;;;;;;4.07;3.13;;;13.00;99.90;;;;;;5067500;28;20627;-87
2023/08/27 01:09:37;;;;;;;4.70;3.03;;;13.00;99.90;;;;;;5083362;28;20763;-85
2023/08/27 01:12:14;;;;;;;7.23;2.97;;;13.10;99.90;;;;;;5050547;28;20162;-86
2023/08/27 01:14:42;;;;;;;5.80;4.07;;;13.10;99.90;;;;;;5049961;28;20243;-85
2023/08/27 01:17:12;;;;;;;6.13;3.70;;;13.10;99.90;;;;;;5067491;28;20217;-87
2023/08/27 01:19:38;;;;;;;4.60;4.13;;;13.20;99.90;;;;;;5049654;28;20228;-86
2023/08/27 01:22:04;;;;;;;5.20;3.17;;;13.20;99.90;;;;;;5049691;28;20283;-87
2023/08/27 01:24:30;;;;;;;4.33;3.07;;;13.20;99.90;;;;;;5052899;28;20209;-85
2023/08/27 01:27:04;;;;;;;5.63;4.40;;;13.20;99.90;;;;;;5072187;28;20529;-86
2023/08/27 01:29:48;;;;;;;4.83;4.00;;;13.30;99.90;;;;;;5071445;28;20819;-85
2023/08/27 01:32:38;;;;;;;4.77;3.90;;;13.30;99.90;;;;;;5071180;28;20216;-86
2023/08/27 01:35:06;;;;;;;5.67;3.83;;;13.20;99.90;;;;;;5053505;28;20243;-86
2023/08/27 01:37:32;;;;;;;5.80;4.40;;;13.20;99.90;;;;;;5053576;28;20278;-87
2023/08/27 01:40:00;;;;;;;5.87;4.37;;;13.20;99.90;;;;;;5053162;28;20749;-84
2023/08/27 01:42:27;;;;;;;4.47;4.03;;;13.20;99.90;;;;;;5036716;28;20256;-85
2023/08/27 01:44:55;;;;;;;8.30;4.53;;;13.20;99.90;;;;;;5071569;28;20181;-87
2023/08/27 01:47:21;;;;;;;10.57;3.70;;;13.20;99.90;;;;;;5070580;28;20216;-85
2023/08/27 01:49:48;;;;;;;4.33;3.93;;;13.20;99.90;;;;;;5071102;28;20799;-85
2023/08/27 01:52:14;;;;;;;6.57;4.73;;;13.30;99.90;;;;;;5053241;28;20230;-88
2023/08/27 01:54:39;;;;;;;5.83;3.87;;;13.30;99.90;;;;;;5070871;28;20239;-87
2023/08/27 01:57:05;;;;;;;4.03;3.03;;;13.40;99.90;;;;;;5070619;28;20181;-84
2023/08/27 01:59:31;;;;;;;6.03;4.20;;;13.40;99.90;;;;;;5054095;28;20243;-87
2023/08/27 02:01:57;;;;;;;7.47;4.70;;;13.40;99.90;;;;;;5053139;28;20236;-87
2023/08/27 02:04:23;;;;;;;6.27;4.77;;;13.50;99.90;;;;;;5053155;28;20213;-88
2023/08/27 02:06:49;;;;;;;7.03;3.83;;;13.50;99.90;;;;;;5071124;28;20211;-87
2023/08/27 02:09:15;;;;;;;4.47;3.73;;;13.40;99.90;;;;;;5070275;28;20277;-84
2023/08/27 02:11:41;;;;;;;6.40;4.57;;;13.50;99.90;;;;;;5037036;28;20173;-87
2023/08/27 02:14:07;;;;;;;13.27;4.60;;;13.50;99.90;;;;;;5052637;28;20247;-87
2023/08/27 02:16:38;;;;;;;6.03;4.57;;;13.50;99.90;;;;;;5070525;28;20702;-85
2023/08/27 02:19:03;;;;;;;5.73;4.47;;;13.40;99.90;;;;;;5070715;28;20221;-86
2023/08/27 02:21:29;;;;;;;8.57;5.13;;;13.40;99.90;;;;;;5035840;28;20216;-87
2023/08/27 02:23:55;;;;;;;7.43;4.37;;;13.40;99.90;;;;;;5053124;28;20181;-84
2023/08/27 02:26:21;;;;;;;5.63;4.57;;;13.40;99.90;;;;;;5036434;28;20227;-87
2023/08/27 02:28:47;;;;;;;5.83;4.13;;;13.40;99.90;;;;;;5052592;28;20758;-86
2023/08/27 02:31:13;;;;;;;5.83;4.40;;;13.40;99.90;;;;;;5052831;28;20282;-87
2023/08/27 02:33:40;;;;;;;6.13;3.97;;;13.40;99.90;;;;;;5052434;28;20300;-87
2023/08/27 02:36:06;;;;;;;4.63;4.20;;;13.30;99.90;;;;;;5069019;28;20637;-86
2023/08/27 02:38:33;;;;;;;5.80;4.17;;;13.30;99.90;;;;;;5053215;28;20273;-87
2023/08/27 02:40:58;;;;;;;7.07;4.83;;;13.20;99.90;;;;;;5069901;28;20263;-88
2023/08/27 02:43:24;;;;;;;8.33;5.17;;;13.20;99.90;;;;;;5035282;28;20229;-87
2023/08/27 02:45:50;;;;;;;6.43;4.67;;;13.20;99.90;;;;;;5069305;28;20215;-85
2023/08/27 02:48:16;;;;;;;5.27;4.57;;;13.10;99.90;;;;;;5052392;28;20611;-88
2023/08/27 02:50:42;;;;;;;7.03;3.97;;;13.10;99.90;;;;;;5070655;28;20208;-85
2023/08/27 02:53:07;;;;;;;4.37;3.17;;;13.10;99.90;;;;;;5069752;28;20229;-86
2023/08/27 02:55:33;;;;;;;7.13;4.00;;;13.10;99.90;;;;;;5035240;28;20343;-84
2023/08/27 02:58:00;;;;;;;5.03;4.40;;;13.10;99.90;;;;;;5052570;28;20232;-87
2023/08/27 03:00:26;;;;;;;4.57;3.50;;;13.10;99.90;;;;;;5069649;28;20232;-85
2023/08/27 03:02:52;;;;;;;6.63;4.63;;;13.10;99.90;;;;;;5070279;28;20804;-87
2023/08/27 03:05:18;;;;;;;8.87;5.37;;;13.20;99.90;;;;;;5068699;28;20217;-87
2023/08/27 03:07:44;;;;;;;5.83;5.27;;;13.10;99.90;;;;;;5051483;28;20267;-88
2023/08/27 03:10:10;;;;;;;7.13;4.93;;;13.10;99.90;;;;;;5051756;28;20212;-87
2023/08/27 03:12:36;;;;;;;8.77;4.57;;;13.10;99.90;;;;;;5035070;28;20275;-87
2023/08/27 03:15:02;;;;;;;8.63;5.17;;;13.10;99.90;;;;;;5069624;28;20229;-84
2023/08/27 03:17:28;;;;;;;6.40;4.33;;;13.20;99.90;;;;;;5051840;28;20221;-87
2023/08/27 03:19:54;;;;;;;5.07;4.57;;;13.20;99.90;;;;;;5051804;28;20222;-88
2023/08/27 03:22:20;;;;;;;6.00;5.40;;;13.10;99.90;;;;;;5051442;28;20678;-85
2023/08/27 03:24:46;;;;;;;4.87;3.37;;;13.10;99.90;;;;;;5035059;28;20209;-88
2023/08/27 03:27:12;;;;;;;6.80;4.20;;;13.20;99.90;;;;;;5051624;28;20184;-85
2023/08/27 03:29:39;;;;;;;5.40;3.87;;;13.20;99.90;;;;;;5035739;28;20273;-88
2023/08/27 03:32:06;;;;;;;8.57;4.40;;;13.20;99.90;;;;;;5051821;28;20216;-87
2023/08/27 03:34:32;;;;;;;7.00;5.30;;;13.30;99.90;;;;;;5051735;28;20213;-88
2023/08/27 03:36:58;;;;;;;6.93;4.33;;;13.30;99.90;;;;;;5051536;28;20259;-87
2023/08/27 03:39:24;;;;;;;9.13;5.13;;;13.40;99.90;;;;;;5051167;28;20212;-89
2023/08/27 03:41:50;;;;;;;9.27;4.10;;;13.40;99.90;;;;;;5052050;28;20790;-85
2023/08/27 03:44:16;;;;;;;7.73;4.60;;;13.40;99.90;;;;;;5051522;28;20221;-87
2023/08/27 03:46:41;;;;;;;6.93;4.77;;;13.40;99.90;;;;;;5051189;28;20209;-87
2023/08/27 03:49:07;;;;;;;7.07;5.23;;;13.50;99.90;;;;;;5068981;28;20212;-86
2023/08/27 03:51:33;;;;;;;7.60;4.67;;;13.50;99.90;;;;;;5067820;28;20213;-85
2023/08/27 03:53:59;;;;;;;6.90;4.30;;;13.50;99.90;;;;;;5069361;28;20355;-85
2023/08/27 03:56:26;;;;;;;6.87;4.83;;;13.50;99.90;;;;;;5051029;28;20225;-88
2023/08/27 03:58:51;;;;;;;7.10;4.23;;;13.50;99.90;;;;;;5034660;28;20209;-86
2023/08/27 04:01:18;;;;;;;7.47;4.23;;;13.50;99.90;;;;;;5051289;28;20271;-88
2023/08/27 04:03:46;;;;;;;7.67;4.50;;;13.50;99.90;;;;;;5034228;28;20297;-85
2023/08/27 04:06:12;;;;;;;5.87;4.53;;;13.50;99.90;;;;;;5068171;28;20268;-86
2023/08/27 04:08:38;;;;;;;6.90;4.93;;;13.50;99.90;;;;;;5051538;28;20197;-85
2023/08/27 04:11:04;;;;;;;6.77;4.57;;;13.50;99.90;;;;;;5050752;28;20221;-88
2023/08/27 04:13:30;;;;;;;6.43;4.77;;;13.50;99.90;;;;;;5050510;28;20231;-88
2023/08/27 04:16:04;;;;;;;7.50;4.63;;;13.50;99.90;;;;;;5068338;28;20257;-87
2023/08/27 04:18:32;;;;;;;7.83;5.20;;;13.50;99.90;;;;;;5051745;28;20296;-84
2023/08/27 04:20:58;;;;;;;10.23;5.53;;;13.60;99.90;;;;;;5035143;28;20735;-87
2023/08/27 04:23:24;;;;;;;6.77;4.37;;;13.60;99.90;;;;;;5068337;28;20233;-86
2023/08/27 04:25:49;;;;;;;7.00;4.23;;;13.70;99.90;;;;;;5067460;28;20650;-87
2023/08/27 04:28:15;;;;;;;8.47;5.67;;;13.80;99.90;;;;;;5068076;28;20260;-84
2023/08/27 04:30:44;;;;;;;8.00;4.47;;;13.80;99.90;;;;;;5033758;28;20708;-88
2023/08/27 04:33:10;;;;;;;8.53;4.83;;;13.80;99.90;;;;;;5050565;28;20201;-86
2023/08/27 04:35:38;;;;;;;7.80;5.60;;;13.90;99.90;;;;;;5067559;28;20615;-84
2023/08/27 04:38:05;;;;;;;8.60;5.30;;;13.90;99.90;;;;;;5034007;28;20217;-88
2023/08/27 04:40:31;;;;;;;9.67;5.30;;;14.00;99.90;;;;;;5050388;28;20235;-88
2023/08/27 04:43:00;;;;;;;9.37;5.40;;;14.10;99.90;;;;;;5050068;28;20306;-87
2023/08/27 04:45:25;;;;;;;9.47;6.87;;;14.10;99.90;;;;;;5017421;28;21427;-85
2023/08/27 04:47:51;;;;;;;9.80;6.13;;;14.20;99.90;;;;;;5067795;28;20188;-88
2023/08/27 04:50:17;;;;;;;8.27;5.47;;;14.20;99.90;;;;;;5033374;28;20216;-86
2023/08/27 04:52:43;;;;;;;8.37;5.83;;;14.30;99.90;;;;;;5033429;28;20305;-86
2023/08/27 04:55:09;;;;;;;6.70;5.43;;;14.40;99.90;;;;;;5050378;28;20608;-88
2023/08/27 04:57:37;;;;;;;6.07;4.97;;;14.50;99.90;;;;;;5051080;28;20231;-89
2023/08/27 05:00:04;;;;;;;6.00;4.13;;;14.60;99.90;;;;;;5058012;28;20346;-86
2023/08/27 05:02:30;;;;;;;7.73;4.40;;;14.60;99.90;;;;;;5040588;28;20262;-86
2023/08/27 05:04:56;;;;;;;9.40;3.97;;;14.70;99.90;;;;;;5023650;28;20665;-85
2023/08/27 05:07:21;;;;;;;5.60;3.90;;;14.80;99.90;;;;;;5040347;28;20209;-86
2023/08/27 05:09:47;;;;;;;8.77;4.47;;;14.80;99.90;;;;;;5040289;28;20261;-86
2023/08/27 05:12:13;;;;;;;4.43;3.93;;;14.90;99.90;;;;;;5039934;28;20302;-85
2023/08/27 05:14:39;;;;;;;6.90;3.90;;;15.10;99.90;;;;;;5057113;28;20225;-87
2023/08/27 05:17:05;;;;;;;7.63;3.80;;;15.10;99.90;;;;;;5056474;28;20449;-88
2023/08/27 05:19:30;;;;;;;6.87;4.10;;;15.20;99.90;;;;;;5073504;28;20299;-86
2023/08/27 05:21:56;;;;;;;7.30;4.90;;;15.30;99.90;;;;;;5039996;28;20216;-87
2023/08/27 05:24:22;;;;;;;8.70;5.93;;;15.30;99.90;;;;;;5056697;28;20185;-86
2023/08/27 05:26:47;;;;;;;8.30;5.33;;;15.40;99.90;;;;;;5057410;28;20178;-87
2023/08/27 05:29:13;;;;;;;12.07;6.17;;;15.40;99.90;;;;;;5039909;28;20618;-87
2023/08/27 05:31:39;;;;;;;11.10;5.70;;;15.40;99.90;;;;;;5056536;28;20227;-87
2023/08/27 05:34:04;;;;;;;11.37;5.47;;;15.40;99.90;;;;;;5056288;28;20221;-87
2023/08/27 05:36:30;;;;;;;7.37;4.73;;;15.40;99.90;;;;;;5073218;28;20216;-86
2023/08/27 05:38:58;;;;;;;9.37;5.37;;;15.40;99.90;;;;;;5057155;28;20806;-87
2023/08/27 05:41:23;;;;;;;10.53;6.30;;;15.40;99.90;;;;;;5074180;28;20236;-89
2023/08/27 05:43:49;;;;;;;7.03;3.87;;;15.30;99.90;;;;;;5056192;28;20244;-85
2023/08/27 05:46:15;;;;;;;7.47;3.80;;;15.30;99.90;;;;;;5039655;28;20717;-88
2023/08/27 05:48:41;;;;;;;8.33;4.90;;;15.40;99.90;;;;;;5056448;28;20200;-87
2023/08/27 05:51:07;;;;;;;10.43;4.20;;;15.30;99.90;;;;;;5039921;28;20618;-86
2023/08/27 05:53:33;;;;;;;6.13;4.57;;;15.20;99.90;;;;;;5056742;28;20205;-87
2023/08/27 05:55:58;;;;;;;10.07;5.20;;;15.20;99.90;;;;;;5055851;28;20224;-85
2023/08/27 05:58:24;;;;;;;4.83;3.63;;;15.20;99.90;;;;;;5056410;28;20228;-87
2023/08/27 06:00:53;;;;;;;7.93;4.33;;;15.10;99.90;;;;;;5039570;28;20232;-88
2023/08/27 06:03:20;;;;;;;4.57;3.37;;;15.10;99.90;;;;;;5056384;28;20331;-84
2023/08/27 06:05:46;;;;;;;5.47;2.83;;;15.00;99.90;;;;;;5057008;28;20649;-85
2023/08/27 06:08:12;;;;;;;4.73;2.63;;;15.00;99.90;;;;;;5039740;28;20212;-85
2023/08/27 06:10:38;;;;;;;5.33;3.23;;;15.00;99.90;;;;;;5052729;28;20220;-88
2023/08/27 06:13:03;;;;;;;4.60;3.90;;;14.90;99.90;;;;;;5052830;28;20252;-87
2023/08/27 06:15:30;;;;;;;4.47;3.53;;;14.90;99.90;;;;;;5070202;28;20229;-86
2023/08/27 06:18:02;;;;;;;3.70;3.40;;;15.00;99.90;;;;;;5037080;28;20186;-88
2023/08/27 06:20:28;;;;;;;5.07;3.67;;;15.00;99.90;;;;;;5070071;28;20783;-85
2023/08/27 06:22:53;;;;;;;5.33;3.60;;;15.10;99.90;;;;;;5036522;28;20233;-89
2023/08/27 06:25:21;;;;;;;5.67;3.87;;;15.20;99.90;;;;;;5070151;28;20244;-86
2023/08/27 06:27:47;;;;;;;5.73;3.97;;;15.20;99.90;;;;;;5052670;28;20247;-87
2023/08/27 06:30:12;;;;;;;3.93;2.83;;;15.30;99.90;;;;;;5069141;28;20257;-87
2023/08/27 06:32:38;;;;;;;4.93;3.53;;;15.30;99.90;;;;;;5052999;28;20224;-84
2023/08/27 06:35:04;;;;;;;6.40;3.53;;;15.30;99.90;;;;;;5052809;28;20236;-87
2023/08/27 06:37:30;;;;;;;12.13;5.73;;;15.40;99.90;;;;;;5069076;28;20213;-84
2023/08/27 06:39:56;;;;;;;12.33;4.77;;;15.40;99.90;;;;;;5069064;28;20213;-86
2023/08/27 06:42:21;;;;;;;8.60;4.97;;;15.50;99.90;;;;;;5068812;28;20248;-87
2023/08/27 06:44:47;;;;;;;5.60;4.13;;;15.60;99.90;;;;;;5052965;28;20182;-87
2023/08/27 06:47:13;;;;;;;9.07;5.23;;;15.60;99.90;;;;;;5052613;28;20674;-88
2023/08/27 06:49:38;;;;;;;9.20;5.37;;;15.70;99.90;;;;;;5052010;28;20220;-87
2023/08/27 06:52:05;;;;;;;7.63;4.00;;;15.70;99.90;;;;;;5052329;28;20217;-87
2023/08/27 06:54:30;;;;;;;8.30;5.50;;;15.70;99.90;;;;;;5068616;28;20717;-85
2023/08/27 06:56:56;;;;;;;6.50;3.83;;;15.70;99.90;;;;;;5069290;28;20177;-85
2023/08/27 06:59:44;;;;;;;7.93;5.33;;;15.70;99.90;;;;;;5038086;27;20927;-86
2023/08/27 07:02:09;;;;;;;8.93;5.33;;;15.80;99.90;;;;;;5039078;28;20805;-88
2023/08/27 07:04:35;;;;;;;5.20;4.27;;;15.80;99.90;;;;;;5027623;28;20248;-85
2023/08/27 07:07:01;;;;;;;7.40;4.83;;;16.00;99.90;;;;;;5044954;28;20232;-87
2023/08/27 07:09:27;;;;;;;5.90;3.87;;;16.20;99.90;;;;;;5019867;28;20225;-85
2023/08/27 07:11:53;;;;;;;6.57;4.60;;;16.40;99.90;;;;;;5020130;28;20275;-85
2023/08/27 07:14:19;;;;;;;5.30;3.77;;;16.50;99.90;;;;;;5054432;28;20229;-87
2023/08/27 07:16:45;;;;;;;8.30;4.30;;;16.40;99.90;;;;;;5025214;28;20218;-85
2023/08/27 07:19:10;;;;;;;13.70;4.80;;;16.70;99.90;;;;;;5061367;28;20678;-87
2023/08/27 07:21:36;;;;;;;10.27;4.30;;;17.50;99.90;;;;;;5035139;28;20220;-86
2023/08/27 07:24:02;;;;;;;8.60;3.93;;;17.80;99.90;;;;;;5037655;28;20222;-86
2023/08/27 07:26:29;;;;;;;7.33;3.63;;;17.90;99.90;;;;;;5035599;28;21280;-88
2023/08/27 07:28:56;;;;;;;7.37;3.70;;;17.80;99.90;;;;;;5018068;28;20221;-87
2023/08/27 07:31:21;;;;;;;13.13;3.53;;;17.70;99.90;;;;;;5029942;28;20217;-88
2023/08/27 07:33:47;;;;;;;4.17;2.97;;;17.70;99.90;;;;;;5032828;28;20220;-88
2023/08/27 07:36:13;;;;;;;3.57;2.83;;;17.90;99.90;;;;;;5019119;28;20393;-84
2023/08/27 07:38:42;;;;;;;8.00;3.50;;;18.40;99.90;;;;;;5022827;28;20215;-86
2023/08/27 07:41:09;;;;;;;4.63;3.20;;;19.50;99.90;;;;;;5004932;28;20222;-87
2023/08/27 07:43:35;;;;;;;4.50;2.63;;;20.70;99.90;;;;;;5047725;28;20304;-86
2023/08/27 07:46:04;;;;;;;2.87;2.57;;;22.00;99.90;;;;;;5030940;28;20573;-87
2023/08/27 07:48:31;;;;;;;2.97;2.23;;;22.70;99.90;;;;;;5022556;28;20232;-85
2023/08/27 07:50:57;;;;;;;2.77;1.80;;;24.30;99.90;;;;;;5039180;28;20211;-85
2023/08/27 07:53:23;;;;;;;3.70;2.00;;;24.40;99.90;;;;;;5020047;28;20242;-86
2023/08/27 07:55:50;;;;;;;2.23;1.80;;;23.40;99.90;;;;;;5032952;28;20697;-84
2023/08/27 07:58:16;;;;;;;2.93;1.70;;;23.60;99.90;;;;;;5046061;28;20740;-87
2023/08/27 08:00:42;;;;;;;2.27;1.90;;;25.40;99.90;;;;;;5022430;28;20217;-86
2023/08/27 08:03:08;;;;;;;2.53;2.03;;;26.20;99.90;;;;;;5020752;28;20235;-86
2023/08/27 08:05:34;;;;;;;3.80;1.90;;;26.80;99.90;;;;;;5019214;28;20198;-83
2023/08/27 08:08:00;;;;;;;3.30;1.70;;;27.20;99.90;;;;;;5033915;28;20243;-86
2023/08/27 08:10:26;;;;;;;1.75;1.10;;;27.40;99.90;;;;;;5000363;28;20643;-87
2023/08/27 08:12:52;;;;;;;3.55;1.23;;;28.00;99.90;;;;;;5028339;28;20221;-85
2023/08/27 08:15:18;;;;;;;1.00;0.90;;;27.10;99.90;;;;;;5040765;28;20198;-85
2023/08/27 08:17:44;;;;;;;2.47;0.60;;;26.90;99.90;;;;;;5022685;28;20225;-85
2023/08/27 08:20:11;;;;;;;1.05;0.93;;;24.90;99.90;;;;;;5021871;28;20502;-84
2023/08/27 08:22:38;;;;;;;1.30;1.05;;;23.70;99.90;;;;;;5028825;28;21183;-83
2023/08/27 08:25:05;;;;;;;0.60;0.60;;;22.70;99.90;;;;;;4996563;28;20232;-85
2023/08/27 08:27:31;;;;;;;1.92;0.75;;;22.20;99.90;;;;;;5020768;28;20349;-87
2023/08/27 08:29:56;;;;;;;0.45;0.45;;;23.70;99.90;;;;;;5005063;28;20240;-84
2023/08/27 08:32:22;;;;;;;2.08;0.93;;;24.80;99.90;;;;;;5023398;28;20710;-83
2023/08/27 08:34:48;;;;;;;0.52;0.50;;;25.70;99.90;;;;;;4992850;28;20237;-82
2023/08/27 08:37:14;;;;;;;0.68;0.50;;;26.60;99.90;;;;;;5029300;28;20210;-85
2023/08/27 08:39:40;;;;;;;0.60;0.60;;;26.80;99.90;;;;;;5001795;28;20218;-82
2023/08/27 08:42:18;;;;;;;0.50;0.50;;;27.50;99.90;;;;;;5020580;28;20187;-83
2023/08/27 08:44:52;;;;;;;0.40;0.40;;;27.30;99.90;;;;;;5041402;28;20204;-84
2023/08/27 08:47:21;;;;;;;1.15;0.35;;;27.40;99.90;;;;;;5023186;28;20218;-84
2023/08/27 08:49:53;;;;;;;0.60;0.60;;;27.70;99.90;;;;;;5049647;28;20424;-81
2023/08/27 08:52:21;;;;;;;0.50;0.50;;;28.60;99.90;;;;;;5030479;28;20301;-84
2023/08/27 08:54:52;;;;;;;0.50;0.50;;;29.30;99.90;;;;;;5042599;28;20394;-86
2023/08/27 08:57:19;;;;;;;0.90;0.40;;;29.50;99.90;;;;;;5038866;28;20178;-83
2023/08/27 08:59:47;;;;;;;1.15;0.40;;;29.50;99.90;;;;;;5004234;28;21110;-82
2023/08/27 09:02:14;;;;;;;0.73;0.40;;;28.30;99.90;;;;;;5022334;28;20306;-85
2023/08/27 09:04:41;;;;;;;0.32;0.32;;;29.00;99.90;;;;;;5027955;28;20218;-85
2023/08/27 09:07:07;;;;;;;0.30;0.30;;;29.50;99.90;;;;;;5029206;28;20222;-84
2023/08/27 09:09:33;;;;;;;0.40;0.30;;;29.80;99.90;;;;;;5020160;28;20223;-82
2023/08/27 09:12:00;;;;;;;0.32;0.32;;;29.00;99.90;;;;;;5003490;28;20670;-86
2023/08/27 09:14:26;;;;;;;0.40;0.40;;;27.10;99.90;;;;;;5022670;28;21052;-85
2023/08/27 09:16:52;;;;;;;0.35;0.35;;;26.30;99.90;;;;;;5008659;28;20333;-82
2023/08/27 09:19:18;;;;;;;0.50;0.50;;;26.60;99.90;;;;;;4992602;28;20230;-83
2023/08/27 09:21:44;;;;;;;0.40;0.40;;;26.60;99.90;;;;;;5005718;28;20212;-85
2023/08/27 09:24:11;;;;;;;0.30;0.30;;;26.50;99.90;;;;;;5022326;28;20182;-85
2023/08/27 09:26:38;;;;;;;1.05;0.30;;;25.80;99.90;;;;;;5021716;28;20497;-83
2023/08/27 09:29:09;;;;;;;0.40;0.40;;;24.70;99.90;;;;;;5002877;28;20218;-84
2023/08/27 09:31:39;;;;;;;1.67;0.50;;;25.10;99.90;;;;;;4994079;28;20227;-82
2023/08/27 09:34:05;;;;;;;0.45;0.45;;;26.60;99.90;;;;;;5028996;28;20214;-85
2023/08/27 09:36:33;;;;;;;0.55;0.50;;;26.70;99.90;;;;;;5019029;28;20222;-80
2023/08/27 09:39:12;;;;;;;0.55;0.50;;;26.60;99.90;;;;;;5036252;28;20198;-85
2023/08/27 09:41:45;;;;;;;1.65;0.43;;;26.50;99.90;;;;;;5003338;28;20729;-83
2023/08/27 09:44:12;;;;;;;1.45;0.60;;;25.30;99.90;;;;;;5020290;28;20226;-85
2023/08/27 09:46:40;;;;;;;1.77;0.80;;;23.30;99.90;;;;;;5014527;28;20742;-84
2023/08/27 09:49:07;;;;;;;0.80;0.80;;;22.30;99.90;;;;;;5014365;28;20214;-82
2023/08/27 09:51:38;;;;;;;0.70;0.52;;;22.50;99.90;;;;;;5020287;28;20310;-86
2023/08/27 09:54:17;;;;;;;1.08;0.63;;;22.50;99.90;;;;;;5019657;28;20224;-86
2023/08/27 09:56:49;;;;;;;1.35;0.80;;;22.40;99.90;;;;;;5056295;28;20612;-85
2023/08/27 09:59:19;;;;;;;0.50;0.50;;;22.30;99.90;;;;;;5039481;28;20229;-84
2023/08/27 10:01:49;;;;;;;1.00;0.65;;;22.00;99.90;;;;;;5022123;28;20297;-85
2023/08/27 10:04:17;;;;;;;0.45;0.45;;;21.60;99.90;;;;;;5013517;28;20234;-81
2023/08/27 10:06:42;;;;;;;0.88;0.70;;;21.80;99.90;;;;;;5020008;28;20206;-83
2023/08/27 10:09:08;;;;;;;1.02;0.63;;;22.00;99.90;;;;;;5001305;28;20288;-85
2023/08/27 10:11:35;;;;;;;0.60;0.60;;;22.30;99.90;;;;;;5023289;28;20621;-84
2023/08/27 10:14:03;;;;;;;0.70;0.60;;;22.20;99.90;;;;;;4989931;28;20416;-85
2023/08/27 10:16:30;;;;;;;1.23;0.60;;;22.40;99.90;;;;;;5030558;28;20213;-85
2023/08/27 10:19:01;;;;;;;0.70;0.70;;;23.40;99.90;;;;;;5015700;28;21003;-85
2023/08/27 10:21:27;;;;;;;0.50;0.50;;;24.90;99.90;;;;;;5022386;28;20217;-84
2023/08/27 10:23:53;;;;;;;0.60;0.60;;;24.70;99.90;;;;;;5039624;28;20193;-86
2023/08/27 10:26:18;;;;;;;0.40;0.40;;;23.50;99.90;;;;;;5019794;28;20225;-85
2023/08/27 10:28:45;;;;;;;0.75;0.60;;;23.40;99.90;;;;;;4999808;28;21071;-83
2023/08/27 10:31:13;;;;;;;0.55;0.43;;;23.70;99.90;;;;;;5011602;28;20300;-83
2023/08/27 10:33:39;;;;;;;0.50;0.50;;;22.40;99.90;;;;;;5001468;28;20242;-87
2023/08/27 10:36:18;;;;;;;3.40;0.80;;;22.70;99.90;;;;;;4969737;28;20582;-84
2023/08/27 10:38:46;;;;;;;0.38;0.38;;;21.50;99.90;;;;;;5002390;28;21215;-85
2023/08/27 10:41:17;;;;;;;0.45;0.45;;;21.00;99.90;;;;;;5034675;28;20214;-84
2023/08/27 10:43:42;;;;;;;0.95;0.50;;;20.80;99.90;;;;;;5015400;28;20633;-82
2023/08/27 10:46:16;;;;;;;0.50;0.40;;;21.20;99.90;;;;;;5031675;28;20222;-83
2023/08/27 10:48:49;;;;;;;0.45;0.45;;;22.40;99.90;;;;;;4990162;28;20224;-83
2023/08/27 10:51:17;;;;;;;0.68;0.68;;;23.90;99.90;;;;;;5038080;28;20285;-85
2023/08/27 10:53:49;;;;;;;1.27;0.43;;;24.40;99.90;;;;;;5003023;28;20253;-84
2023/08/27 10:56:31;;;;;;;0.52;0.50;;;25.10;99.90;;;;;;5036418;28;20304;-85
2023/08/27 10:59:01;;;;;;;1.83;0.70;;;23.60;99.90;;;;;;5022249;28;20250;-87
2023/08/27 11:01:28;;;;;;;3.30;2.00;;;22.50;99.90;;;;;;5000034;28;20242;-82
2023/08/27 11:04:00;;;;;;;0.85;0.43;;;22.60;99.90;;;;;;5032633;28;20246;-87
2023/08/27 11:06:46;;;;;;;0.50;0.50;;;22.10;99.90;;;;;;5022440;28;20193;-85
2023/08/27 11:09:23;;;;;;;0.50;0.50;;;21.20;99.90;;;;;;5021775;28;20281;-87
2023/08/27 11:11:59;;;;;;;0.50;0.50;;;20.80;99.90;;;;;;5001417;28;20293;-84
2023/08/27 11:14:25;;;;;;;0.30;0.30;;;20.90;99.90;;;;;;5038186;28;20315;-85
2023/08/27 11:17:06;;;;;;;1.27;0.60;;;20.40;99.90;;;;;;5024677;28;20222;-83
2023/08/27 11:19:38;;;;;;;0.20;0.20;;;20.30;99.90;;;;;;5030884;28;20226;-82
2023/08/27 11:22:13;;;;;;;0.40;0.40;;;20.00;99.90;;;;;;5013707;28;20222;-86
2023/08/27 11:24:53;;;;;;;0.40;0.40;;;19.20;99.90;;;;;;4989937;28;20270;-84
2023/08/27 11:27:21;;;;;;;1.00;0.33;;;18.40;99.90;;;;;;5036946;28;20194;-82
2023/08/27 11:29:49;;;;;;;0.60;0.50;;;18.10;99.90;;;;;;5001968;28;20691;-85
2023/08/27 11:32:16;;;;;;;2.73;0.70;;;18.00;99.90;;;;;;5035754;28;20218;-85
2023/08/27 11:34:44;;;;;;;1.33;0.50;;;18.10;99.90;;;;;;5025668;28;20214;-83
2023/08/27 11:37:10;;;;;;;0.50;0.40;;;17.90;99.90;;;;;;5010018;28;20240;-83
2023/08/27 11:39:39;;;;;;;2.77;0.40;;;18.10;99.90;;;;;;5017420;28;20227;-84
2023/08/27 11:42:10;;;;;;;1.80;0.70;;;18.20;99.90;;;;;;5019424;28;20195;-85
2023/08/27 11:44:44;;;;;;;0.63;0.50;;;18.20;99.90;;;;;;5020549;28;21286;-82
2023/08/27 11:47:10;;;;;;;0.40;0.40;;;18.60;99.90;;;;;;5039581;28;20225;-84
2023/08/27 11:49:36;;;;;;;0.20;0.20;;;18.80;99.90;;;;;;5013692;28;20223;-83
2023/08/27 11:52:02;;;;;;;2.00;0.63;;;18.90;99.90;;;;;;5045672;28;20275;-83
2023/08/27 11:54:31;;;;;;;0.50;0.50;;;19.30;99.90;;;;;;5021434;28;20801;-82
2023/08/27 11:56:58;;;;;;;0.30;0.30;;;19.60;99.90;;;;;;5020979;28;20602;-84
2023/08/27 11:59:27;;;;;;;0.30;0.30;;;20.00;99.90;;;;;;5024135;28;20268;-85
2023/08/27 12:01:54;;;;;;;0.60;0.40;;;20.60;99.90;;;;;;4993669;28;20676;-84
2023/08/27 12:04:20;;;;;;;0.30;0.30;;;20.80;99.90;;;;;;4999578;28;20304;-85
2023/08/27 12:06:56;;;;;;;0.93;0.67;;;20.60;99.90;;;;;;5019125;28;21132;-87
2023/08/27 12:09:28;;;;;;;1.03;0.60;;;20.60;99.90;;;;;;5007043;28;20229;-85
2023/08/27 12:11:57;;;;;;;0.77;0.40;;;21.10;99.90;;;;;;5042086;28;20636;-84
2023/08/27 12:14:26;;;;;;;0.50;0.43;;;20.70;99.90;;;;;;5038289;28;20210;-84
2023/08/27 12:16:53;;;;;;;0.43;0.37;;;20.50;99.90;;;;;;5037457;28;20218;-86
2023/08/27 12:19:23;;;;;;;0.67;0.40;;;20.70;99.90;;;;;;5014186;28;20471;-85
2023/08/27 12:21:50;;;;;;;0.97;0.50;;;20.90;99.90;;;;;;5010406;28;20317;-84
2023/08/27 12:24:35;;;;;;;2.23;0.60;;;21.30;99.90;;;;;;5040279;28;20704;-88
2023/08/27 12:27:03;;;;;;;0.83;0.43;;;21.60;99.90;;;;;;5004978;28;20187;-86
2023/08/27 12:29:36;;;;;;;0.40;0.40;;;21.70;99.90;;;;;;5042387;28;20221;-87
2023/08/27 12:32:16;;;;;;;0.50;0.50;;;21.10;99.90;;;;;;4995682;28;20305;-85
2023/08/27 12:34:52;;;;;;;0.82;0.82;;;21.30;99.90;;;;;;5017902;28;20203;-86
2023/08/27 12:37:20;;;;;;;0.30;0.30;;;21.30;99.90;;;;;;5032125;28;20313;-84
2023/08/27 12:39:46;;;;;;;0.33;0.30;;;21.20;99.90;;;;;;5027784;28;20229;-87
2023/08/27 12:42:16;;;;;;;0.50;0.50;;;21.40;99.90;;;;;;5006284;28;20196;-87
2023/08/27 12:44:43;;;;;;;1.57;0.40;;;21.30;99.90;;;;;;5006248;28;20214;-87
2023/08/27 12:47:09;;;;;;;1.00;0.53;;;20.90;99.90;;;;;;5038600;28;20205;-87